Time;durP1;ratioP1;P1;durP2;ratioP2;P2;SDS_P1;SDS_P2;PMS_P1;PMS_P2;Temp;Humidity;BMP_temperature;BMP_pressure;BME280_temperature;BME280_humidity;BME280_pressure;Samples;Min_cycle;Max_cycle;Signal;HPM_P1;HPM_P2
2022/03/07 00:01:57;;;;;;;13.33;9.50;;;1.20;84.60;;;;;;5090388;28;20238;-78
2022/03/07 00:04:23;;;;;;;14.48;10.43;;;1.20;85.20;;;;;;5091497;28;20186;-77
2022/03/07 00:06:49;;;;;;;15.40;9.93;;;1.20;85.00;;;;;;5073020;28;20191;-80
2022/03/07 00:09:15;;;;;;;14.57;10.07;;;1.10;85.30;;;;;;5072742;28;20421;-80
2022/03/07 00:11:42;;;;;;;12.50;9.57;;;1.20;86.40;;;;;;5091142;28;20196;-81
2022/03/07 00:14:08;;;;;;;13.93;10.32;;;1.30;86.10;;;;;;5091061;28;20178;-80
2022/03/07 00:16:34;;;;;;;17.35;10.10;;;1.30;86.60;;;;;;5056382;28;20656;-80
2022/03/07 00:19:00;;;;;;;11.40;9.38;;;1.30;86.40;;;;;;5091521;28;20191;-80
2022/03/07 00:21:27;;;;;;;11.10;9.25;;;1.20;86.70;;;;;;5091553;28;20200;-80
2022/03/07 00:23:52;;;;;;;14.95;10.48;;;1.30;87.80;;;;;;5089337;28;20180;-79
2022/03/07 00:26:19;;;;;;;13.37;9.47;;;1.20;88.10;;;;;;5072867;28;20664;-84
2022/03/07 00:28:46;;;;;;;19.50;10.27;;;1.20;88.50;;;;;;5073297;28;20275;-83
2022/03/07 00:31:12;;;;;;;14.25;9.80;;;1.20;88.80;;;;;;5072366;28;20214;-81
2022/03/07 00:33:38;;;;;;;12.57;9.02;;;1.10;89.00;;;;;;5089244;28;20183;-80
2022/03/07 00:36:05;;;;;;;14.05;11.27;;;1.10;89.40;;;;;;5088877;28;20186;-77
2022/03/07 00:38:31;;;;;;;11.13;9.23;;;1.10;89.90;;;;;;5088732;28;20235;-78
2022/03/07 00:40:57;;;;;;;13.47;9.43;;;1.00;90.00;;;;;;5088542;28;20207;-78
2022/03/07 00:43:23;;;;;;;12.43;9.95;;;1.10;90.30;;;;;;5088462;28;20409;-79
2022/03/07 00:45:49;;;;;;;12.53;9.40;;;1.10;90.20;;;;;;5090444;28;20183;-77
2022/03/07 00:48:16;;;;;;;14.82;10.43;;;1.10;90.20;;;;;;5088391;28;20214;-79
2022/03/07 00:50:44;;;;;;;12.27;9.45;;;1.00;90.10;;;;;;5089554;28;20190;-78
2022/03/07 00:53:14;;;;;;;11.68;9.60;;;1.00;90.00;;;;;;5089462;28;20278;-77
2022/03/07 00:55:40;;;;;;;11.50;9.15;;;1.00;90.00;;;;;;5088326;28;20199;-76
2022/03/07 00:58:06;;;;;;;12.80;9.87;;;1.00;90.00;;;;;;5087939;28;20465;-78
2022/03/07 01:00:33;;;;;;;14.80;9.00;;;0.90;90.20;;;;;;5087985;28;20235;-77
2022/03/07 01:02:58;;;;;;;15.80;9.80;;;0.90;90.50;;;;;;5088641;28;20440;-77
2022/03/07 01:05:24;;;;;;;11.90;9.27;;;0.90;90.60;;;;;;5071380;28;20201;-79
2022/03/07 01:07:50;;;;;;;14.37;9.67;;;0.90;90.40;;;;;;5071106;28;20210;-76
2022/03/07 01:10:16;;;;;;;13.03;8.50;;;1.00;90.30;;;;;;5071605;28;20294;-77
2022/03/07 01:12:41;;;;;;;16.40;8.73;;;0.90;90.60;;;;;;5088386;28;20595;-78
2022/03/07 01:15:08;;;;;;;9.43;8.33;;;0.90;90.40;;;;;;5089104;28;20185;-77
2022/03/07 01:17:35;;;;;;;10.82;8.82;;;0.80;90.40;;;;;;5093792;28;20174;-76
2022/03/07 01:20:02;;;;;;;10.60;8.45;;;0.90;90.40;;;;;;5093460;28;20187;-77
2022/03/07 01:22:28;;;;;;;11.73;8.75;;;1.00;90.40;;;;;;5074913;28;20203;-78
2022/03/07 01:24:53;;;;;;;10.00;8.20;;;0.90;90.40;;;;;;5091462;28;20199;-77
2022/03/07 01:27:19;;;;;;;12.40;9.07;;;0.90;89.80;;;;;;5092814;28;20211;-78
2022/03/07 01:29:45;;;;;;;11.23;9.13;;;1.00;90.10;;;;;;5074200;28;20292;-78
2022/03/07 01:32:10;;;;;;;9.47;7.87;;;0.80;89.90;;;;;;5091080;28;20202;-78
2022/03/07 01:34:36;;;;;;;9.53;8.37;;;0.80;90.30;;;;;;5091674;28;20182;-79
2022/03/07 01:37:02;;;;;;;10.00;9.00;;;1.00;90.70;;;;;;5074191;28;20193;-78
2022/03/07 01:39:28;;;;;;;10.17;8.30;;;0.70;90.80;;;;;;5074601;28;20183;-77
2022/03/07 01:41:53;;;;;;;10.80;7.63;;;0.70;90.60;;;;;;5091219;28;20460;-77
2022/03/07 01:44:22;;;;;;;10.50;8.20;;;0.70;90.60;;;;;;5093050;28;20308;-79
2022/03/07 01:46:48;;;;;;;10.00;7.72;;;0.80;89.90;;;;;;5090906;28;20846;-78
2022/03/07 01:49:14;;;;;;;8.70;7.18;;;0.80;90.00;;;;;;5092164;28;20193;-80
2022/03/07 01:51:44;;;;;;;12.90;8.10;;;0.80;90.40;;;;;;5073906;28;20581;-78
2022/03/07 01:54:15;;;;;;;14.13;8.13;;;0.70;90.20;;;;;;5091693;28;20449;-78
2022/03/07 01:56:45;;;;;;;10.57;7.90;;;0.70;90.00;;;;;;5073592;28;20186;-78
2022/03/07 01:59:12;;;;;;;9.80;7.85;;;0.60;90.00;;;;;;5090188;28;20183;-78
2022/03/07 02:01:38;;;;;;;13.35;8.57;;;0.50;89.60;;;;;;5092304;28;20208;-78
2022/03/07 02:04:04;;;;;;;9.88;7.05;;;0.50;89.70;;;;;;5090882;28;20193;-77
2022/03/07 02:06:30;;;;;;;9.32;7.18;;;0.50;90.10;;;;;;5090919;28;20222;-77
2022/03/07 02:08:57;;;;;;;11.00;7.47;;;0.60;90.00;;;;;;5073791;28;20229;-76
2022/03/07 02:11:24;;;;;;;11.80;8.07;;;0.50;90.10;;;;;;5091983;28;21007;-77
2022/03/07 02:13:51;;;;;;;8.95;6.95;;;0.70;90.10;;;;;;5073667;28;20258;-78
2022/03/07 02:16:17;;;;;;;10.93;8.20;;;0.60;90.10;;;;;;5089528;28;20219;-78
2022/03/07 02:18:43;;;;;;;7.93;6.90;;;0.60;89.70;;;;;;5072808;28;20201;-78
2022/03/07 02:21:15;;;;;;;13.73;8.07;;;0.70;89.60;;;;;;5089043;28;20209;-78
2022/03/07 02:23:43;;;;;;;9.18;7.57;;;0.60;89.50;;;;;;5072945;28;20676;-81
2022/03/07 02:26:13;;;;;;;7.97;7.15;;;0.60;89.20;;;;;;5089414;28;20271;-80
2022/03/07 02:28:40;;;;;;;12.20;8.73;;;0.60;89.70;;;;;;5071889;28;20218;-81
2022/03/07 02:31:06;;;;;;;10.70;7.93;;;0.50;89.30;;;;;;5055996;28;20206;-80
2022/03/07 02:33:33;;;;;;;8.20;7.03;;;0.60;90.10;;;;;;5089206;28;20265;-79
2022/03/07 02:35:59;;;;;;;11.60;8.23;;;0.50;89.40;;;;;;5089153;28;20179;-79
2022/03/07 02:38:25;;;;;;;9.50;8.48;;;0.60;89.50;;;;;;5090738;28;20179;-80
2022/03/07 02:40:51;;;;;;;10.03;7.67;;;0.50;89.40;;;;;;5071990;28;20731;-80
2022/03/07 02:43:17;;;;;;;9.47;7.30;;;0.50;89.40;;;;;;5089537;28;20183;-77
2022/03/07 02:45:43;;;;;;;8.15;7.22;;;0.50;89.60;;;;;;5089317;28;20304;-79
2022/03/07 02:48:09;;;;;;;9.68;7.25;;;0.50;89.40;;;;;;5090276;28;20221;-78
2022/03/07 02:50:35;;;;;;;9.33;7.63;;;0.50;89.80;;;;;;5055249;28;20574;-80
2022/03/07 02:53:01;;;;;;;10.33;6.90;;;0.40;90.00;;;;;;5088556;28;20544;-78
2022/03/07 02:55:26;;;;;;;9.63;6.93;;;0.40;90.50;;;;;;5071827;28;20250;-79
2022/03/07 02:57:52;;;;;;;13.10;7.43;;;0.30;90.40;;;;;;5089384;28;20435;-79
2022/03/07 03:00:18;;;;;;;8.50;7.37;;;0.30;90.80;;;;;;5088587;28;20669;-78
2022/03/07 03:02:44;;;;;;;9.37;7.23;;;0.30;90.80;;;;;;5071585;28;20210;-79
2022/03/07 03:05:11;;;;;;;9.90;7.70;;;0.20;91.00;;;;;;5071646;28;20550;-78
2022/03/07 03:07:36;;;;;;;10.68;7.38;;;0.10;91.50;;;;;;5072190;28;20839;-79
2022/03/07 03:10:03;;;;;;;7.47;6.60;;;0.10;91.90;;;;;;5090325;28;20235;-78
2022/03/07 03:12:29;;;;;;;7.55;6.82;;;0.10;92.10;;;;;;5088863;28;20211;-78
2022/03/07 03:14:55;;;;;;;9.20;7.50;;;0.10;92.20;;;;;;5072086;28;20188;-78
2022/03/07 03:17:20;;;;;;;7.80;6.70;;;0.00;92.20;;;;;;5090397;28;20204;-78
2022/03/07 03:19:46;;;;;;;10.83;7.97;;;0.00;92.20;;;;;;5071871;28;20192;-79
2022/03/07 03:22:12;;;;;;;7.10;6.40;;;-0.10;92.00;;;;;;5072264;28;20604;-80
2022/03/07 03:24:38;;;;;;;9.50;7.33;;;0.00;92.10;;;;;;5088865;28;20433;-79
2022/03/07 03:27:04;;;;;;;9.37;7.20;;;-0.10;92.40;;;;;;5088698;28;20464;-80
2022/03/07 03:29:30;;;;;;;8.20;7.20;;;-0.10;92.40;;;;;;5071641;28;20183;-79
2022/03/07 03:31:57;;;;;;;10.90;7.83;;;-0.10;92.40;;;;;;5089862;28;20202;-78
2022/03/07 03:34:24;;;;;;;11.68;8.85;;;-0.20;92.50;;;;;;5088411;28;20966;-79
2022/03/07 03:36:50;;;;;;;10.45;6.93;;;-0.20;92.80;;;;;;5089085;28;20244;-77
2022/03/07 03:39:15;;;;;;;8.87;7.77;;;-0.40;93.10;;;;;;5089813;28;20648;-77
2022/03/07 03:41:41;;;;;;;8.60;6.83;;;-0.50;93.60;;;;;;5090211;28;20477;-78
2022/03/07 03:44:07;;;;;;;10.73;7.70;;;-0.60;93.40;;;;;;5090787;28;20208;-78
2022/03/07 03:46:33;;;;;;;9.90;7.20;;;-0.50;93.60;;;;;;5090755;28;20579;-78
2022/03/07 03:48:58;;;;;;;9.10;7.10;;;-0.60;93.70;;;;;;5072623;28;20218;-76
2022/03/07 03:51:24;;;;;;;10.10;7.80;;;-0.60;93.70;;;;;;5089533;28;20609;-78
2022/03/07 03:53:50;;;;;;;8.77;7.73;;;-0.60;93.40;;;;;;5089215;28;20219;-79
2022/03/07 03:56:15;;;;;;;9.37;7.80;;;-0.50;93.30;;;;;;5070754;28;20183;-77
2022/03/07 03:58:41;;;;;;;9.43;7.53;;;-0.50;93.40;;;;;;5087208;28;20740;-76
2022/03/07 04:01:07;;;;;;;8.77;7.67;;;-0.50;93.40;;;;;;5088438;28;20198;-76
2022/03/07 04:03:32;;;;;;;10.30;8.10;;;-0.60;93.70;;;;;;5088439;28;20178;-75
2022/03/07 04:05:58;;;;;;;8.97;7.87;;;-0.70;93.80;;;;;;5088478;28;20266;-75
2022/03/07 04:08:24;;;;;;;9.23;8.33;;;-0.70;93.60;;;;;;5088439;28;20222;-75
2022/03/07 04:10:49;;;;;;;9.03;7.10;;;-0.70;93.70;;;;;;5086977;28;20182;-75
2022/03/07 04:13:15;;;;;;;9.33;7.37;;;-0.60;93.20;;;;;;5088493;28;20186;-75
2022/03/07 04:15:40;;;;;;;8.70;6.80;;;-0.60;92.10;;;;;;5088805;28;20245;-74
2022/03/07 04:18:06;;;;;;;13.83;7.70;;;-0.60;91.70;;;;;;5087065;28;20189;-74
2022/03/07 04:20:33;;;;;;;8.13;6.70;;;-0.50;91.80;;;;;;5088336;28;20179;-74
2022/03/07 04:23:00;;;;;;;11.60;7.65;;;-0.50;91.80;;;;;;5086942;28;20444;-74
2022/03/07 04:25:26;;;;;;;12.02;8.35;;;-0.50;91.60;;;;;;5088810;28;20282;-74
2022/03/07 04:27:51;;;;;;;8.03;6.50;;;-0.50;91.70;;;;;;5088472;28;20293;-74
2022/03/07 04:30:17;;;;;;;8.10;7.30;;;-0.50;91.60;;;;;;5088647;28;20293;-74
2022/03/07 04:32:42;;;;;;;12.20;8.50;;;-0.50;91.60;;;;;;5087340;28;20214;-75
2022/03/07 04:35:11;;;;;;;15.17;8.17;;;-0.60;92.30;;;;;;5088820;28;20203;-75
2022/03/07 04:37:40;;;;;;;8.80;7.30;;;-0.60;92.70;;;;;;5088678;28;20186;-74
2022/03/07 04:40:12;;;;;;;9.13;7.60;;;-0.70;92.90;;;;;;5088901;28;20175;-74
2022/03/07 04:42:38;;;;;;;10.93;7.38;;;-0.70;92.10;;;;;;5087407;28;20240;-75
2022/03/07 04:45:04;;;;;;;7.97;6.93;;;-0.70;91.90;;;;;;5088713;28;20627;-74
2022/03/07 04:47:29;;;;;;;10.68;7.30;;;-0.70;91.70;;;;;;5087333;28;20486;-74
2022/03/07 04:49:55;;;;;;;10.80;7.47;;;-0.60;91.70;;;;;;5088948;28;20640;-75
2022/03/07 04:52:21;;;;;;;7.90;7.10;;;-0.60;91.80;;;;;;5092664;28;20202;-75
2022/03/07 04:54:46;;;;;;;10.10;7.97;;;-0.60;91.70;;;;;;5074653;28;20667;-74
2022/03/07 04:57:12;;;;;;;16.40;7.87;;;-0.70;92.30;;;;;;5093080;28;20178;-74
2022/03/07 04:59:37;;;;;;;8.20;7.37;;;-0.80;92.60;;;;;;5093109;28;20186;-74
2022/03/07 05:02:03;;;;;;;10.40;7.73;;;-0.80;92.30;;;;;;5093019;28;20202;-75
2022/03/07 05:04:29;;;;;;;9.83;8.43;;;-0.80;92.60;;;;;;5093119;28;20284;-75
2022/03/07 05:06:54;;;;;;;12.30;7.87;;;-0.90;93.00;;;;;;5092903;28;20198;-76
2022/03/07 05:09:20;;;;;;;13.23;8.70;;;-1.00;93.60;;;;;;5092959;28;20203;-76
2022/03/07 05:11:46;;;;;;;10.77;9.20;;;-1.10;93.80;;;;;;5091410;28;20203;-76
2022/03/07 05:14:11;;;;;;;10.50;8.70;;;-1.20;94.10;;;;;;5092622;28;20546;-76
2022/03/07 05:16:37;;;;;;;9.83;8.73;;;-1.30;94.30;;;;;;5092720;28;20187;-76
2022/03/07 05:19:02;;;;;;;12.50;7.60;;;-1.30;94.40;;;;;;5092695;28;20321;-76
2022/03/07 05:21:29;;;;;;;9.10;8.10;;;-1.30;94.50;;;;;;5092452;28;20209;-75
2022/03/07 05:23:54;;;;;;;11.35;8.35;;;-1.40;94.60;;;;;;5090758;28;20186;-76
2022/03/07 05:26:20;;;;;;;11.40;8.50;;;-1.50;94.70;;;;;;5090809;28;20247;-75
2022/03/07 05:28:46;;;;;;;12.97;9.23;;;-1.50;94.60;;;;;;5091945;28;20280;-74
2022/03/07 05:31:13;;;;;;;11.30;8.53;;;-1.50;94.90;;;;;;5091898;28;20210;-74
2022/03/07 05:33:40;;;;;;;11.43;8.88;;;-1.60;94.90;;;;;;5092067;28;20175;-74
2022/03/07 05:36:06;;;;;;;13.50;8.00;;;-1.70;95.00;;;;;;5092202;28;20689;-75
2022/03/07 05:38:32;;;;;;;10.50;8.15;;;-1.70;95.50;;;;;;5091808;28;20186;-74
2022/03/07 05:40:58;;;;;;;17.02;9.13;;;-1.80;95.30;;;;;;5091943;28;20206;-74
2022/03/07 05:43:24;;;;;;;12.60;8.80;;;-1.80;95.70;;;;;;5091534;28;20262;-74
2022/03/07 05:45:50;;;;;;;12.43;8.67;;;-1.80;96.00;;;;;;5090147;28;20573;-73
2022/03/07 05:48:15;;;;;;;10.70;8.10;;;-1.80;95.90;;;;;;5091323;28;20198;-74
2022/03/07 05:50:41;;;;;;;18.57;10.27;;;-2.00;96.00;;;;;;5089520;28;20183;-75
2022/03/07 05:53:07;;;;;;;14.27;9.43;;;-2.00;96.30;;;;;;5091129;28;20648;-74
2022/03/07 05:55:33;;;;;;;10.82;8.70;;;-1.90;96.40;;;;;;5091818;28;20194;-76
2022/03/07 05:58:01;;;;;;;13.43;9.47;;;-2.00;96.40;;;;;;5089962;28;20187;-76
2022/03/07 06:00:28;;;;;;;11.75;9.00;;;-2.20;96.80;;;;;;5091139;28;20219;-75
2022/03/07 06:02:54;;;;;;;15.57;8.57;;;-2.20;97.00;;;;;;5089935;28;20282;-76
2022/03/07 06:05:21;;;;;;;11.48;8.90;;;-2.30;97.20;;;;;;5091312;28;20679;-77
2022/03/07 06:07:46;;;;;;;12.60;8.75;;;-2.30;98.00;;;;;;5090712;28;20202;-77
2022/03/07 06:10:12;;;;;;;15.00;9.27;;;-2.30;97.40;;;;;;5090026;28;20185;-76
2022/03/07 06:12:38;;;;;;;14.80;9.00;;;-2.20;97.30;;;;;;5091935;28;20194;-77
2022/03/07 06:15:06;;;;;;;10.67;8.40;;;-2.20;97.50;;;;;;5090932;28;20682;-76
2022/03/07 06:17:32;;;;;;;11.73;9.60;;;-2.10;97.30;;;;;;5089245;28;20179;-76
2022/03/07 06:19:57;;;;;;;12.70;9.23;;;-2.00;97.10;;;;;;5090658;28;20175;-76
2022/03/07 06:22:23;;;;;;;12.73;9.13;;;-2.10;97.20;;;;;;5090557;28;20764;-74
2022/03/07 06:24:49;;;;;;;16.33;8.97;;;-2.00;97.20;;;;;;5090795;28;20566;-74
2022/03/07 06:27:15;;;;;;;13.57;9.93;;;-2.00;97.00;;;;;;5090757;28;20225;-74
2022/03/07 06:29:40;;;;;;;12.07;9.40;;;-2.00;97.00;;;;;;5090669;28;20261;-74
2022/03/07 06:32:07;;;;;;;18.90;11.10;;;-1.90;97.10;;;;;;5090441;28;20680;-74
2022/03/07 06:34:33;;;;;;;14.02;8.88;;;-1.90;97.30;;;;;;5088956;28;20181;-74
2022/03/07 06:37:00;;;;;;;16.38;9.80;;;-1.80;97.10;;;;;;5087520;28;20190;-73
2022/03/07 06:39:27;;;;;;;17.95;11.57;;;-1.40;97.10;;;;;;5089171;28;20175;-73
2022/03/07 06:41:56;;;;;;;10.27;9.10;;;-0.90;96.00;;;;;;5087142;28;20209;-73
2022/03/07 06:44:22;;;;;;;15.57;10.57;;;-0.40;94.50;;;;;;5089038;28;20175;-74
2022/03/07 06:46:48;;;;;;;16.05;9.82;;;0.00;94.00;;;;;;5088865;28;20190;-73
2022/03/07 06:49:14;;;;;;;15.13;10.20;;;0.40;92.60;;;;;;5088918;28;20223;-75
2022/03/07 06:51:40;;;;;;;16.93;10.60;;;0.40;91.90;;;;;;5088590;28;20205;-74
2022/03/07 06:54:06;;;;;;;14.20;11.03;;;0.70;91.80;;;;;;5088940;28;20211;-74
2022/03/07 06:56:31;;;;;;;16.87;11.20;;;1.10;91.30;;;;;;5088630;28;20168;-74
2022/03/07 06:58:57;;;;;;;13.93;10.30;;;1.50;90.40;;;;;;5087242;28;20947;-74
2022/03/07 07:01:23;;;;;;;22.97;11.67;;;1.90;87.90;;;;;;5087177;28;20820;-73
2022/03/07 07:03:48;;;;;;;18.40;11.70;;;2.40;86.00;;;;;;5087283;28;20224;-73
2022/03/07 07:06:14;;;;;;;21.60;11.77;;;2.80;83.80;;;;;;5088732;28;20723;-73
2022/03/07 07:08:40;;;;;;;24.33;12.17;;;2.90;81.50;;;;;;5088790;28;20220;-73
2022/03/07 07:11:05;;;;;;;20.13;11.60;;;3.00;81.10;;;;;;5088475;28;20247;-73
2022/03/07 07:13:31;;;;;;;15.80;11.90;;;3.00;79.00;;;;;;5086779;28;20271;-73
2022/03/07 07:15:57;;;;;;;16.93;12.00;;;3.00;79.10;;;;;;5088347;28;20181;-73
2022/03/07 07:18:24;;;;;;;17.20;12.37;;;3.10;77.80;;;;;;5086762;28;20659;-73
2022/03/07 07:20:52;;;;;;;16.60;11.57;;;3.20;79.30;;;;;;5088102;28;20499;-73
2022/03/07 07:23:21;;;;;;;13.70;11.27;;;3.50;78.40;;;;;;5088401;28;20510;-73
2022/03/07 07:25:47;;;;;;;15.80;11.93;;;3.40;77.20;;;;;;5086784;28;20454;-73
2022/03/07 07:28:14;;;;;;;16.30;11.60;;;3.50;79.20;;;;;;5086341;28;20902;-73
2022/03/07 07:30:39;;;;;;;17.02;11.82;;;3.60;78.90;;;;;;5088032;28;20431;-73
2022/03/07 07:33:05;;;;;;;15.57;10.40;;;3.60;78.00;;;;;;5088109;28;20646;-73
2022/03/07 07:35:33;;;;;;;15.50;11.70;;;3.40;76.00;;;;;;5088385;28;20429;-73
2022/03/07 07:38:00;;;;;;;14.52;10.85;;;3.40;78.60;;;;;;5088463;28;20526;-73
2022/03/07 07:40:26;;;;;;;21.15;11.90;;;3.50;78.90;;;;;;5088395;28;20193;-73
2022/03/07 07:42:51;;;;;;;16.90;12.10;;;3.80;78.60;;;;;;5088228;28;20210;-74
2022/03/07 07:45:17;;;;;;;18.13;12.00;;;4.00;77.60;;;;;;5088427;28;20419;-74
2022/03/07 07:47:43;;;;;;;12.57;10.90;;;4.10;76.00;;;;;;5086573;28;20247;-74
2022/03/07 07:50:09;;;;;;;19.93;13.37;;;4.00;75.10;;;;;;5086782;28;20565;-73
2022/03/07 07:52:36;;;;;;;13.37;11.20;;;3.90;74.00;;;;;;5088067;28;20451;-73
2022/03/07 07:55:04;;;;;;;16.37;11.17;;;3.70;72.40;;;;;;5088024;28;20453;-73
2022/03/07 07:57:30;;;;;;;16.60;10.80;;;3.80;73.20;;;;;;5087756;28;20550;-73
2022/03/07 07:59:56;;;;;;;15.60;11.07;;;3.60;72.70;;;;;;5087990;28;20428;-72
2022/03/07 08:02:22;;;;;;;14.80;11.40;;;3.60;75.80;;;;;;5088245;28;20464;-74
2022/03/07 08:04:51;;;;;;;17.60;12.00;;;3.50;74.70;;;;;;5086777;28;20213;-73
2022/03/07 08:07:20;;;;;;;14.47;11.90;;;3.40;76.80;;;;;;5088024;28;20210;-73
2022/03/07 08:09:46;;;;;;;17.33;10.70;;;3.50;75.80;;;;;;5086480;28;20424;-73
2022/03/07 08:12:12;;;;;;;13.67;10.50;;;3.80;74.60;;;;;;5088203;28;20456;-73
2022/03/07 08:14:38;;;;;;;13.60;10.40;;;4.00;74.20;;;;;;5088185;28;20178;-74
2022/03/07 08:17:05;;;;;;;13.97;10.80;;;4.20;74.30;;;;;;5088100;28;20439;-73
2022/03/07 08:19:31;;;;;;;18.73;10.70;;;4.40;74.20;;;;;;5086373;28;20198;-74
2022/03/07 08:21:57;;;;;;;16.47;10.40;;;4.70;73.60;;;;;;5087915;28;20453;-74
2022/03/07 08:24:23;;;;;;;13.87;11.13;;;4.90;72.70;;;;;;5088324;28;20416;-74
2022/03/07 08:26:50;;;;;;;17.30;13.20;;;5.10;70.60;;;;;;5094272;28;20176;-73
2022/03/07 08:29:15;;;;;;;15.60;11.33;;;5.50;68.80;;;;;;5094749;28;20948;-73
2022/03/07 08:31:41;;;;;;;14.77;11.20;;;5.90;67.30;;;;;;5093429;28;20436;-74
2022/03/07 08:34:07;;;;;;;16.50;11.97;;;5.90;65.60;;;;;;5094597;28;20182;-74
2022/03/07 08:36:32;;;;;;;15.17;10.50;;;6.10;62.80;;;;;;5094682;28;20956;-74
2022/03/07 08:38:59;;;;;;;12.40;10.07;;;5.80;60.40;;;;;;5094721;28;20182;-74
2022/03/07 08:41:25;;;;;;;17.03;11.33;;;5.90;61.00;;;;;;5094572;28;20444;-74
2022/03/07 08:43:52;;;;;;;13.63;11.10;;;6.20;60.40;;;;;;5094541;28;20420;-74
2022/03/07 08:46:18;;;;;;;16.30;11.83;;;6.90;60.60;;;;;;5094577;28;20450;-73
2022/03/07 08:48:44;;;;;;;16.83;10.90;;;6.40;58.90;;;;;;5094383;28;20471;-73
2022/03/07 08:51:10;;;;;;;14.23;10.13;;;6.60;58.70;;;;;;5094504;28;20753;-73
2022/03/07 08:53:36;;;;;;;36.80;11.70;;;6.60;58.20;;;;;;5094215;28;20251;-74
2022/03/07 08:56:02;;;;;;;11.90;10.23;;;6.80;58.70;;;;;;5094562;28;20181;-74
2022/03/07 08:58:27;;;;;;;13.70;11.50;;;6.40;58.00;;;;;;5094401;28;20921;-73
2022/03/07 09:00:53;;;;;;;17.13;11.70;;;6.40;59.50;;;;;;5094682;28;20574;-73
2022/03/07 09:03:18;;;;;;;14.37;10.93;;;6.50;58.80;;;;;;5094589;28;20179;-73
2022/03/07 09:05:44;;;;;;;13.80;10.23;;;6.30;59.10;;;;;;5093270;28;20182;-74
2022/03/07 09:08:10;;;;;;;10.30;9.20;;;6.90;58.00;;;;;;5094483;28;20242;-73
2022/03/07 09:10:36;;;;;;;11.53;10.13;;;7.50;56.10;;;;;;5094447;28;20181;-74
2022/03/07 09:13:02;;;;;;;12.97;9.90;;;7.70;54.50;;;;;;5094188;28;20289;-73
2022/03/07 09:15:27;;;;;;;13.30;10.07;;;8.30;54.40;;;;;;5092666;28;20201;-74
2022/03/07 09:17:53;;;;;;;13.50;10.80;;;8.30;52.20;;;;;;5094089;28;20481;-74
2022/03/07 09:20:19;;;;;;;13.77;10.43;;;8.20;53.40;;;;;;5093924;28;20213;-74
2022/03/07 09:22:45;;;;;;;13.67;10.40;;;7.40;53.50;;;;;;5093850;28;20202;-73
2022/03/07 09:25:12;;;;;;;11.37;10.00;;;7.70;54.70;;;;;;5093361;28;20975;-74
2022/03/07 09:27:38;;;;;;;9.90;8.83;;;8.10;53.50;;;;;;5093250;28;20455;-74
2022/03/07 09:30:06;;;;;;;12.63;10.17;;;8.60;52.70;;;;;;5093729;28;20447;-73
2022/03/07 09:32:32;;;;;;;29.63;19.90;;;9.00;50.50;;;;;;5093807;28;20943;-73
2022/03/07 09:34:57;;;;;;;32.10;18.40;;;9.20;50.30;;;;;;5094143;28;20429;-74
2022/03/07 09:37:23;;;;;;;17.10;10.97;;;9.20;50.80;;;;;;5091229;28;20783;-73
2022/03/07 09:39:49;;;;;;;12.93;10.53;;;9.50;51.70;;;;;;5090137;28;20530;-74
2022/03/07 09:42:15;;;;;;;12.63;11.17;;;9.60;50.00;;;;;;5088325;28;20207;-73
2022/03/07 09:44:41;;;;;;;15.43;10.67;;;9.30;50.00;;;;;;5089857;28;20425;-73
2022/03/07 09:47:07;;;;;;;14.90;10.37;;;9.50;49.60;;;;;;5090126;28;20431;-74
2022/03/07 09:49:33;;;;;;;12.00;10.00;;;8.80;49.70;;;;;;5090816;28;20631;-74
2022/03/07 09:51:59;;;;;;;12.97;9.70;;;8.60;50.00;;;;;;5090643;28;20281;-74
2022/03/07 09:54:25;;;;;;;11.20;9.80;;;8.90;50.40;;;;;;5088768;28;20485;-74
2022/03/07 09:56:52;;;;;;;12.00;9.83;;;9.00;50.00;;;;;;5090652;28;20433;-73
2022/03/07 09:59:19;;;;;;;12.40;10.60;;;8.30;49.40;;;;;;5090391;28;20175;-74
2022/03/07 10:01:45;;;;;;;16.43;11.73;;;7.80;49.60;;;;;;5090084;28;20442;-74
2022/03/07 10:04:13;;;;;;;16.20;12.60;;;7.30;51.30;;;;;;5090428;28;20425;-73
2022/03/07 10:06:48;;;;;;;12.90;10.53;;;7.10;51.50;;;;;;5089944;28;20420;-72
2022/03/07 10:09:19;;;;;;;14.30;10.73;;;7.20;51.90;;;;;;5090392;28;21029;-73
2022/03/07 10:11:51;;;;;;;14.50;11.00;;;7.10;51.80;;;;;;5089789;28;20482;-73
2022/03/07 10:14:17;;;;;;;14.93;11.50;;;6.40;52.40;;;;;;5089742;28;20437;-73
2022/03/07 10:16:44;;;;;;;15.90;11.70;;;6.10;53.10;;;;;;5089768;28;20472;-73
2022/03/07 10:19:15;;;;;;;15.20;11.33;;;5.90;54.10;;;;;;5089781;28;20545;-73
2022/03/07 10:21:51;;;;;;;12.17;10.60;;;5.60;54.70;;;;;;5089656;28;20454;-73
2022/03/07 10:24:19;;;;;;;13.53;9.53;;;5.30;55.50;;;;;;5071162;28;20526;-73
2022/03/07 10:26:44;;;;;;;17.50;11.47;;;5.30;56.20;;;;;;5088007;28;20883;-73
2022/03/07 10:29:10;;;;;;;13.00;10.20;;;5.10;57.20;;;;;;5089245;28;20456;-73
2022/03/07 10:31:44;;;;;;;11.70;10.20;;;5.00;55.70;;;;;;5088960;28;20428;-73
2022/03/07 10:34:10;;;;;;;11.00;9.07;;;5.00;55.60;;;;;;5089001;28;20424;-73
2022/03/07 10:36:39;;;;;;;12.43;9.90;;;5.30;56.80;;;;;;5088855;28;20454;-73
2022/03/07 10:39:10;;;;;;;14.30;10.50;;;5.00;55.20;;;;;;5088867;28;20424;-73
2022/03/07 10:41:42;;;;;;;12.27;10.27;;;5.10;55.20;;;;;;5087378;28;20480;-73
2022/03/07 10:44:32;;;;;;;13.73;9.43;;;5.00;55.80;;;;;;5089130;28;20419;-73
2022/03/07 10:47:12;;;;;;;13.83;9.70;;;6.10;56.90;;;;;;5089049;28;20802;-73
2022/03/07 10:49:57;;;;;;;16.50;9.93;;;7.70;55.10;;;;;;5088279;28;20508;-73
2022/03/07 10:52:24;;;;;;;10.77;8.93;;;8.70;50.80;;;;;;5088628;28;20523;-72
2022/03/07 10:54:50;;;;;;;13.80;9.17;;;9.00;48.50;;;;;;5088337;28;20432;-72
2022/03/07 10:57:18;;;;;;;13.80;10.07;;;9.70;47.50;;;;;;5088461;28;20504;-72
2022/03/07 10:59:44;;;;;;;16.27;10.67;;;9.50;45.50;;;;;;5087389;28;20463;-72
2022/03/07 11:02:16;;;;;;;15.00;10.43;;;9.10;45.50;;;;;;5088689;28;20444;-74
2022/03/07 11:04:48;;;;;;;15.43;10.00;;;8.80;45.20;;;;;;5088650;28;21080;-73
2022/03/07 11:07:14;;;;;;;11.30;9.93;;;8.70;45.50;;;;;;5088443;28;20816;-74
2022/03/07 11:09:40;;;;;;;13.93;10.50;;;8.50;45.00;;;;;;5088192;28;20478;-74
2022/03/07 11:12:11;;;;;;;16.27;11.07;;;8.30;45.10;;;;;;5088300;28;20432;-73
2022/03/07 11:14:38;;;;;;;11.47;9.80;;;8.20;45.10;;;;;;5086498;28;20439;-74
2022/03/07 11:17:06;;;;;;;13.30;11.20;;;8.50;44.70;;;;;;5088200;28;20417;-73
2022/03/07 11:19:32;;;;;;;12.50;9.60;;;8.40;44.80;;;;;;5086524;28;20906;-73
2022/03/07 11:21:59;;;;;;;17.27;10.50;;;8.70;44.20;;;;;;5087957;28;20432;-73
2022/03/07 11:24:26;;;;;;;12.60;10.20;;;9.30;44.90;;;;;;5087991;28;20431;-73
2022/03/07 11:26:55;;;;;;;11.20;9.97;;;9.50;44.70;;;;;;5088461;28;20773;-73
2022/03/07 11:29:36;;;;;;;11.23;9.40;;;9.70;44.80;;;;;;5087928;28;20485;-73
2022/03/07 11:32:08;;;;;;;15.33;9.87;;;10.20;43.50;;;;;;5087945;28;20463;-73
2022/03/07 11:34:33;;;;;;;12.33;10.97;;;10.60;43.40;;;;;;5087839;28;20836;-74
2022/03/07 11:36:59;;;;;;;13.60;10.37;;;10.90;42.20;;;;;;5087709;28;20907;-73
2022/03/07 11:39:34;;;;;;;13.03;10.73;;;11.10;39.40;;;;;;5087709;28;20429;-74
2022/03/07 11:42:14;;;;;;;15.80;10.87;;;11.30;39.60;;;;;;5087905;28;20438;-74
2022/03/07 11:44:45;;;;;;;12.40;10.57;;;11.50;39.20;;;;;;5087635;28;20422;-73
2022/03/07 11:47:19;;;;;;;14.17;11.17;;;11.70;39.90;;;;;;5087667;28;20445;-73
2022/03/07 11:49:46;;;;;;;12.20;10.00;;;10.60;37.40;;;;;;5087602;28;20499;-73
2022/03/07 11:52:17;;;;;;;14.57;11.20;;;11.10;39.10;;;;;;5086014;28;20445;-73
2022/03/07 11:54:57;;;;;;;13.53;11.13;;;11.20;37.30;;;;;;5087067;28;20872;-74
2022/03/07 11:57:34;;;;;;;13.90;11.03;;;11.80;38.00;;;;;;5087557;28;20893;-73
2022/03/07 12:00:21;;;;;;;16.70;10.10;;;11.30;37.90;;;;;;5086590;28;20889;-73
2022/03/07 12:02:57;;;;;;;13.20;10.80;;;10.80;36.80;;;;;;5087469;28;20561;-73
2022/03/07 12:05:27;;;;;;;13.27;11.60;;;10.70;36.80;;;;;;5087633;28;20421;-74
2022/03/07 12:08:10;;;;;;;12.80;11.07;;;10.60;36.40;;;;;;5087257;28;20999;-73
2022/03/07 12:10:38;;;;;;;11.93;10.73;;;11.00;36.80;;;;;;5087208;28;20782;-73
2022/03/07 12:13:10;;;;;;;15.07;12.00;;;11.40;36.70;;;;;;5085690;28;20452;-74
2022/03/07 12:15:47;;;;;;;15.13;11.83;;;11.60;36.20;;;;;;5087170;28;20410;-73
2022/03/07 12:18:13;;;;;;;12.30;10.97;;;11.30;35.60;;;;;;5087695;28;20413;-73
2022/03/07 12:21:00;;;;;;;17.20;11.57;;;10.20;35.30;;;;;;5087231;28;20417;-73
2022/03/07 12:23:29;;;;;;;12.63;10.93;;;9.20;36.80;;;;;;5087146;28;20469;-72
2022/03/07 12:25:58;;;;;;;15.77;11.00;;;9.30;38.20;;;;;;5085522;28;20513;-72
2022/03/07 12:28:28;;;;;;;12.80;10.73;;;8.90;38.40;;;;;;5087324;28;20464;-74
2022/03/07 12:30:54;;;;;;;16.00;11.93;;;9.60;38.70;;;;;;5087150;28;20460;-73
2022/03/07 12:33:20;;;;;;;13.70;11.47;;;9.50;37.70;;;;;;5087123;28;20545;-73
2022/03/07 12:35:46;;;;;;;15.07;11.30;;;9.70;37.30;;;;;;5085591;28;21186;-73
2022/03/07 12:38:11;;;;;;;12.00;9.77;;;9.90;37.60;;;;;;5085460;28;20190;-74
2022/03/07 12:40:38;;;;;;;14.50;11.30;;;10.20;36.70;;;;;;5087094;28;20194;-73